Terminal Aerodrome Forecast
Issued by NWS Sioux Falls, SD

Home | Current Version | Previous Version | Text Only | Print | Product List | Glossary Off
Versions: 1 2 3 4 5 6 7 8 9 10 11 12 13

000
FTUS43 KFSD 170300 AAA
TAFHON
TAF AMD
KHON 170334Z 1704/1724 01012KT P6SM OVC025
     FM170400 36011KT P6SM SCT025 SCT200
     FM171200 02006KT P6SM SCT250
     FM171800 12007KT P6SM SCT200=

USA.gov is the U.S. government's official web portal to all federal, state and local government web resources and services.